sensor_id;sensor_type;location;lat;lon;timestamp;pressure;altitude;pressure_sealevel;temperature;humidity
13553;BME280;6847;48.830;9.116;2023-04-15T00:01:48;96922.47;;;8.02;46.57
13553;BME280;6847;48.830;9.116;2023-04-15T00:04:16;96858.72;;;7.58;46.32
13553;BME280;6847;48.830;9.116;2023-04-15T00:06:49;96941.78;;;8.09;46.65
13553;BME280;6847;48.830;9.116;2023-04-15T00:09:15;96939.13;;;8.04;46.40
13553;BME280;6847;48.830;9.116;2023-04-15T00:11:44;96878.09;;;7.60;46.21
13553;BME280;6847;48.830;9.116;2023-04-15T00:14:10;96938.66;;;7.97;46.45
13553;BME280;6847;48.830;9.116;2023-04-15T00:16:37;96566.09;;;5.41;46.46
13553;BME280;6847;48.830;9.116;2023-04-15T00:19:04;96943.03;;;7.93;46.62
13553;BME280;6847;48.830;9.116;2023-04-15T00:21:31;96940.63;;;7.91;46.81
13553;BME280;6847;48.830;9.116;2023-04-15T00:23:58;96897.53;;;7.57;46.42
13553;BME280;6847;48.830;9.116;2023-04-15T00:26:25;96936.34;;;7.85;46.59
13553;BME280;6847;48.830;9.116;2023-04-15T00:28:54;96940.13;;;7.84;46.83
13553;BME280;6847;48.830;9.116;2023-04-15T00:31:21;96935.84;;;7.83;47.21
13553;BME280;6847;48.830;9.116;2023-04-15T00:33:47;96936.13;;;7.82;47.00
13553;BME280;6847;48.830;9.116;2023-04-15T00:36:14;96931.28;;;7.78;46.71
13553;BME280;6847;48.830;9.116;2023-04-15T00:38:41;96933.44;;;7.76;47.16
13553;BME280;6847;48.830;9.116;2023-04-15T00:41:11;96931.84;;;7.75;47.05
13553;BME280;6847;48.830;9.116;2023-04-15T00:43:37;96918.97;;;7.67;46.98
13553;BME280;6847;48.830;9.116;2023-04-15T00:46:08;96927.31;;;7.71;47.07
13553;BME280;6847;48.830;9.116;2023-04-15T00:48:39;96929.19;;;7.70;47.67
13553;BME280;6847;48.830;9.116;2023-04-15T00:51:06;96867.84;;;7.33;47.05
13553;BME280;6847;48.830;9.116;2023-04-15T00:53:37;96929.19;;;7.70;47.30
13553;BME280;6847;48.830;9.116;2023-04-15T00:56:06;96841.66;;;7.05;47.54
13553;BME280;6847;48.830;9.116;2023-04-15T00:58:33;96936.50;;;7.65;47.28
13553;BME280;6847;48.830;9.116;2023-04-15T01:01:01;96899.28;;;7.38;47.82
13553;BME280;6847;48.830;9.116;2023-04-15T01:03:30;96766.16;;;6.52;47.57
13553;BME280;6847;48.830;9.116;2023-04-15T01:05:59;96933.13;;;7.49;48.04
13553;BME280;6847;48.830;9.116;2023-04-15T01:08:26;96940.66;;;7.52;48.03
13553;BME280;6847;48.830;9.116;2023-04-15T01:10:53;96901.22;;;7.32;47.98
13553;BME280;6847;48.830;9.116;2023-04-15T01:13:21;96933.13;;;7.49;47.78
13553;BME280;6847;48.830;9.116;2023-04-15T01:15:52;96839.31;;;6.93;48.37
13553;BME280;6847;48.830;9.116;2023-04-15T01:18:18;96908.22;;;7.33;48.14
13553;BME280;6847;48.830;9.116;2023-04-15T01:20:52;96930.25;;;7.40;47.80
13553;BME280;6847;48.830;9.116;2023-04-15T01:23:21;96617.09;;;5.41;47.66
13553;BME280;6847;48.830;9.116;2023-04-15T01:25:50;96931.91;;;7.31;48.04
13553;BME280;6847;48.830;9.116;2023-04-15T01:28:17;96927.88;;;7.29;47.87
13553;BME280;6847;48.830;9.116;2023-04-15T01:30:44;96933.81;;;7.26;48.33
13553;BME280;6847;48.830;9.116;2023-04-15T01:33:11;96925.78;;;7.21;48.17
13553;BME280;6847;48.830;9.116;2023-04-15T01:35:38;96931.72;;;7.18;48.24
13553;BME280;6847;48.830;9.116;2023-04-15T01:38:06;96936.56;;;7.16;48.70
13553;BME280;6847;48.830;9.116;2023-04-15T01:40:33;96928.28;;;7.12;48.82
13553;BME280;6847;48.830;9.116;2023-04-15T01:43:01;96928.00;;;7.09;48.70
13553;BME280;6847;48.830;9.116;2023-04-15T01:45:29;96933.41;;;7.09;48.46
13553;BME280;6847;48.830;9.116;2023-04-15T01:47:57;96933.94;;;7.05;48.25
13553;BME280;6847;48.830;9.116;2023-04-15T01:50:24;96930.75;;;7.03;48.47
13553;BME280;6847;48.830;9.116;2023-04-15T01:52:51;96919.78;;;6.95;48.81
13553;BME280;6847;48.830;9.116;2023-04-15T01:55:18;96934.25;;;6.99;48.72
13553;BME280;6847;48.830;9.116;2023-04-15T01:57:46;96891.63;;;6.72;48.93
13553;BME280;6847;48.830;9.116;2023-04-15T02:00:14;96931.03;;;6.97;49.08
13553;BME280;6847;48.830;9.116;2023-04-15T02:02:42;96930.22;;;6.96;48.73
13553;BME280;6847;48.830;9.116;2023-04-15T02:05:11;96856.50;;;6.48;48.69
13553;BME280;6847;48.830;9.116;2023-04-15T02:07:38;96937.78;;;6.94;48.70
13553;BME280;6847;48.830;9.116;2023-04-15T02:10:07;96931.88;;;6.92;49.06
13553;BME280;6847;48.830;9.116;2023-04-15T02:12:34;96935.13;;;6.89;49.21
13553;BME280;6847;48.830;9.116;2023-04-15T02:15:01;96932.69;;;6.88;49.44
13553;BME280;6847;48.830;9.116;2023-04-15T02:17:28;96936.22;;;6.83;49.22
13553;BME280;6847;48.830;9.116;2023-04-15T02:19:57;96927.63;;;6.81;48.92
13553;BME280;6847;48.830;9.116;2023-04-15T02:22:24;96909.94;;;6.70;49.28
13553;BME280;6847;48.830;9.116;2023-04-15T02:24:50;96906.69;;;6.68;49.40
13553;BME280;6847;48.830;9.116;2023-04-15T02:27:17;96919.03;;;6.79;49.47
13553;BME280;6847;48.830;9.116;2023-04-15T02:29:44;96921.75;;;6.74;49.62
13553;BME280;6847;48.830;9.116;2023-04-15T02:32:11;96906.19;;;6.61;49.24
13553;BME280;6847;48.830;9.116;2023-04-15T02:34:40;96921.53;;;6.65;49.41
13553;BME280;6847;48.830;9.116;2023-04-15T02:37:07;96920.72;;;6.60;49.66
13553;BME280;6847;48.830;9.116;2023-04-15T02:39:34;96913.78;;;6.54;50.06
13553;BME280;6847;48.830;9.116;2023-04-15T02:42:01;96915.94;;;6.47;50.09
13553;BME280;6847;48.830;9.116;2023-04-15T02:44:33;96900.94;;;6.30;49.97
13553;BME280;6847;48.830;9.116;2023-04-15T02:47:01;96917.03;;;6.41;49.84
13553;BME280;6847;48.830;9.116;2023-04-15T02:49:32;96830.13;;;5.86;49.77
13553;BME280;6847;48.830;9.116;2023-04-15T02:52:01;96911.66;;;6.41;50.08
13553;BME280;6847;48.830;9.116;2023-04-15T02:54:28;96912.47;;;6.41;50.30
13553;BME280;6847;48.830;9.116;2023-04-15T02:56:59;96912.50;;;6.36;50.46
13553;BME280;6847;48.830;9.116;2023-04-15T02:59:28;96905.78;;;6.28;49.94
13553;BME280;6847;48.830;9.116;2023-04-15T03:01:55;96914.41;;;6.25;49.78
13553;BME280;6847;48.830;9.116;2023-04-15T03:04:25;96894.28;;;6.13;50.10
13553;BME280;6847;48.830;9.116;2023-04-15T03:06:54;96900.44;;;6.23;50.54
13553;BME280;6847;48.830;9.116;2023-04-15T03:09:22;96905.53;;;6.25;50.02
13553;BME280;6847;48.830;9.116;2023-04-15T03:11:49;96912.78;;;6.24;50.33
13553;BME280;6847;48.830;9.116;2023-04-15T03:14:17;96873.06;;;6.06;49.85
13553;BME280;6847;48.830;9.116;2023-04-15T03:16:44;96907.94;;;6.21;50.15
13553;BME280;6847;48.830;9.116;2023-04-15T03:19:11;96905.53;;;6.20;49.95
13553;BME280;6847;48.830;9.116;2023-04-15T03:21:38;96910.09;;;6.19;49.92
13553;BME280;6847;48.830;9.116;2023-04-15T03:24:04;96911.19;;;6.18;49.91
13553;BME280;6847;48.830;9.116;2023-04-15T03:26:32;96901.00;;;6.10;50.19
13553;BME280;6847;48.830;9.116;2023-04-15T03:28:59;96919.25;;;6.13;50.56
13553;BME280;6847;48.830;9.116;2023-04-15T03:31:27;96922.50;;;6.10;50.55
13553;BME280;6847;48.830;9.116;2023-04-15T03:33:54;96904.50;;;6.01;50.28
13553;BME280;6847;48.830;9.116;2023-04-15T03:36:23;96915.50;;;6.09;50.33
13553;BME280;6847;48.830;9.116;2023-04-15T03:38:51;96913.34;;;6.11;49.95
13553;BME280;6847;48.830;9.116;2023-04-15T03:41:18;96914.16;;;6.12;51.01
13553;BME280;6847;48.830;9.116;2023-04-15T03:43:46;96876.59;;;5.91;50.66
13553;BME280;6847;48.830;9.116;2023-04-15T03:46:12;96911.22;;;6.13;50.51
13553;BME280;6847;48.830;9.116;2023-04-15T03:48:40;96902.88;;;6.15;50.42
13553;BME280;6847;48.830;9.116;2023-04-15T03:51:06;96908.50;;;6.18;50.19
13553;BME280;6847;48.830;9.116;2023-04-15T03:53:33;96917.09;;;6.20;50.52
13553;BME280;6847;48.830;9.116;2023-04-15T03:55:59;96913.31;;;6.21;50.87
13553;BME280;6847;48.830;9.116;2023-04-15T03:58:26;96877.63;;;6.01;50.99
13553;BME280;6847;48.830;9.116;2023-04-15T04:00:58;96919.78;;;6.25;50.60
13553;BME280;6847;48.830;9.116;2023-04-15T04:03:25;96911.16;;;6.28;51.14
13553;BME280;6847;48.830;9.116;2023-04-15T04:05:52;96915.44;;;6.29;51.40
13553;BME280;6847;48.830;9.116;2023-04-15T04:08:24;96862.91;;;5.93;51.18
13553;BME280;6847;48.830;9.116;2023-04-15T04:10:51;96877.34;;;6.12;50.40
13553;BME280;6847;48.830;9.116;2023-04-15T04:13:23;96843.00;;;5.84;50.40
13553;BME280;6847;48.830;9.116;2023-04-15T04:15:51;96909.28;;;6.29;51.46
13553;BME280;6847;48.830;9.116;2023-04-15T04:18:19;96804.94;;;5.56;51.10
13553;BME280;6847;48.830;9.116;2023-04-15T04:20:46;96924.59;;;6.28;51.28
13553;BME280;6847;48.830;9.116;2023-04-15T04:23:14;96789.13;;;5.40;51.42
13553;BME280;6847;48.830;9.116;2023-04-15T04:25:41;96925.16;;;6.25;50.68
13553;BME280;6847;48.830;9.116;2023-04-15T04:28:07;96927.31;;;6.23;50.81
13553;BME280;6847;48.830;9.116;2023-04-15T04:30:37;96918.72;;;6.21;51.46
13553;BME280;6847;48.830;9.116;2023-04-15T04:33:04;96926.22;;;6.19;51.20
13553;BME280;6847;48.830;9.116;2023-04-15T04:35:32;96926.50;;;6.18;51.07
13553;BME280;6847;48.830;9.116;2023-04-15T04:38:02;96931.06;;;6.17;50.80
13553;BME280;6847;48.830;9.116;2023-04-15T04:40:29;96933.75;;;6.17;51.71
13553;BME280;6847;48.830;9.116;2023-04-15T04:42:59;96933.75;;;6.17;51.39
13553;BME280;6847;48.830;9.116;2023-04-15T04:45:26;96930.56;;;6.15;51.20
13553;BME280;6847;48.830;9.116;2023-04-15T04:47:55;96938.63;;;6.15;51.65
13553;BME280;6847;48.830;9.116;2023-04-15T04:50:24;96935.13;;;6.15;51.33
13553;BME280;6847;48.830;9.116;2023-04-15T04:52:52;96816.50;;;5.37;51.94
13553;BME280;6847;48.830;9.116;2023-04-15T04:55:19;96931.09;;;6.12;51.14
13553;BME280;6847;48.830;9.116;2023-04-15T04:57:46;96934.84;;;6.11;51.12
13553;BME280;6847;48.830;9.116;2023-04-15T05:00:12;96886.50;;;5.81;51.25
13553;BME280;6847;48.830;9.116;2023-04-15T05:02:39;96931.09;;;6.12;51.26
13553;BME280;6847;48.830;9.116;2023-04-15T05:05:08;96935.94;;;6.10;51.25
13553;BME280;6847;48.830;9.116;2023-04-15T05:07:35;96908.56;;;5.88;51.46
13553;BME280;6847;48.830;9.116;2023-04-15T05:10:07;96946.41;;;6.12;52.08
13553;BME280;6847;48.830;9.116;2023-04-15T05:12:34;96952.06;;;6.15;51.88
13553;BME280;6847;48.830;9.116;2023-04-15T05:15:01;96949.88;;;6.17;51.74
13553;BME280;6847;48.830;9.116;2023-04-15T05:17:30;96934.31;;;6.14;52.03
13553;BME280;6847;48.830;9.116;2023-04-15T05:19:59;96956.84;;;6.28;51.48
13553;BME280;6847;48.830;9.116;2023-04-15T05:22:26;96955.22;;;6.27;51.33
13553;BME280;6847;48.830;9.116;2023-04-15T05:24:52;96951.47;;;6.28;51.16
13553;BME280;6847;48.830;9.116;2023-04-15T05:27:20;96946.06;;;6.39;51.41
13553;BME280;6847;48.830;9.116;2023-04-15T05:29:48;96941.22;;;6.46;52.07
13553;BME280;6847;48.830;9.116;2023-04-15T05:32:15;96943.84;;;6.61;52.16
13553;BME280;6847;48.830;9.116;2023-04-15T05:34:41;96941.94;;;6.72;51.93
13553;BME280;6847;48.830;9.116;2023-04-15T05:37:08;96952.91;;;6.80;51.66
13553;BME280;6847;48.830;9.116;2023-04-15T05:39:35;96943.72;;;6.91;51.51
13553;BME280;6847;48.830;9.116;2023-04-15T05:42:01;96943.41;;;6.98;51.45
13553;BME280;6847;48.830;9.116;2023-04-15T05:44:31;96939.31;;;7.05;51.75
13553;BME280;6847;48.830;9.116;2023-04-15T05:46:57;96943.63;;;7.12;51.34
13553;BME280;6847;48.830;9.116;2023-04-15T05:49:24;96954.31;;;7.22;51.58
13553;BME280;6847;48.830;9.116;2023-04-15T05:51:52;96926.81;;;7.30;51.56
13553;BME280;6847;48.830;9.116;2023-04-15T05:54:18;96946.56;;;7.54;51.41
13553;BME280;6847;48.830;9.116;2023-04-15T05:56:46;96950.22;;;7.73;51.18
13553;BME280;6847;48.830;9.116;2023-04-15T05:59:12;96948.97;;;7.90;50.90
13553;BME280;6847;48.830;9.116;2023-04-15T06:01:40;96939.72;;;8.01;51.33
13553;BME280;6847;48.830;9.116;2023-04-15T06:04:10;96951.91;;;8.22;50.90
13553;BME280;6847;48.830;9.116;2023-04-15T06:06:37;96951.84;;;8.32;51.19
13553;BME280;6847;48.830;9.116;2023-04-15T06:09:03;96951.44;;;8.44;50.78
13553;BME280;6847;48.830;9.116;2023-04-15T06:11:30;96952.66;;;8.57;50.69
13553;BME280;6847;48.830;9.116;2023-04-15T06:13:56;96959.09;;;8.61;51.06
13553;BME280;6847;48.830;9.116;2023-04-15T06:16:23;96950.09;;;8.70;50.84
13553;BME280;6847;48.830;9.116;2023-04-15T06:18:51;96949.88;;;8.85;51.07
13553;BME280;6847;48.830;9.116;2023-04-15T06:21:18;96956.69;;;9.02;50.99
13553;BME280;6847;48.830;9.116;2023-04-15T06:23:44;96955.97;;;9.15;50.59
13553;BME280;6847;48.830;9.116;2023-04-15T06:26:11;96958.63;;;9.39;50.47
13553;BME280;6847;48.830;9.116;2023-04-15T06:28:38;96957.72;;;9.62;50.58
13553;BME280;6847;48.830;9.116;2023-04-15T06:31:04;96971.44;;;9.84;50.31
13553;BME280;6847;48.830;9.116;2023-04-15T06:33:31;96965.13;;;10.08;50.02
13553;BME280;6847;48.830;9.116;2023-04-15T06:35:59;96970.63;;;10.35;50.08
13553;BME280;6847;48.830;9.116;2023-04-15T06:38:26;96980.38;;;10.63;50.15
13553;BME280;6847;48.830;9.116;2023-04-15T06:40:53;96943.97;;;10.69;49.57
13553;BME280;6847;48.830;9.116;2023-04-15T06:43:19;96973.97;;;11.14;49.98
13553;BME280;6847;48.830;9.116;2023-04-15T06:45:45;96978.81;;;11.39;50.08
13553;BME280;6847;48.830;9.116;2023-04-15T06:48:12;96979.53;;;11.67;49.91
13553;BME280;6847;48.830;9.116;2023-04-15T06:50:39;96976.94;;;11.98;49.28
13553;BME280;6847;48.830;9.116;2023-04-15T06:53:07;96980.63;;;12.24;49.40
13553;BME280;6847;48.830;9.116;2023-04-15T06:55:34;96979.81;;;12.46;49.25
13553;BME280;6847;48.830;9.116;2023-04-15T06:58:03;96950.75;;;12.47;48.84
13553;BME280;6847;48.830;9.116;2023-04-15T07:00:34;96989.75;;;12.82;49.37
13553;BME280;6847;48.830;9.116;2023-04-15T07:03:03;96985.28;;;12.94;49.68
13553;BME280;6847;48.830;9.116;2023-04-15T07:05:30;96984.38;;;13.08;49.55
13553;BME280;6847;48.830;9.116;2023-04-15T07:07:56;96987.97;;;13.17;49.60
13553;BME280;6847;48.830;9.116;2023-04-15T07:10:24;96901.47;;;12.62;49.69
13553;BME280;6847;48.830;9.116;2023-04-15T07:12:54;96977.91;;;13.34;49.82
13553;BME280;6847;48.830;9.116;2023-04-15T07:15:21;96976.19;;;13.47;49.39
13553;BME280;6847;48.830;9.116;2023-04-15T07:17:49;96974.94;;;13.70;49.19
13553;BME280;6847;48.830;9.116;2023-04-15T07:20:17;96977.34;;;13.98;49.52
13553;BME280;6847;48.830;9.116;2023-04-15T07:22:45;96975.06;;;14.26;49.26
13553;BME280;6847;48.830;9.116;2023-04-15T07:25:12;96973.91;;;14.53;48.58
13553;BME280;6847;48.830;9.116;2023-04-15T07:27:43;96976.03;;;14.85;48.54
13553;BME280;6847;48.830;9.116;2023-04-15T07:30:11;96976.72;;;15.11;48.39
13553;BME280;6847;48.830;9.116;2023-04-15T07:32:38;96961.41;;;15.28;47.97
13553;BME280;6847;48.830;9.116;2023-04-15T07:35:07;96964.63;;;15.50;47.77
13553;BME280;6847;48.830;9.116;2023-04-15T07:37:35;96977.81;;;15.69;47.82
13553;BME280;6847;48.830;9.116;2023-04-15T07:40:02;96983.28;;;15.90;47.58
13553;BME280;6847;48.830;9.116;2023-04-15T07:42:29;96969.97;;;16.09;47.39
13553;BME280;6847;48.830;9.116;2023-04-15T07:44:58;96970.66;;;16.51;47.15
13553;BME280;6847;48.830;9.116;2023-04-15T07:47:25;96973.31;;;16.60;46.75
13553;BME280;6847;48.830;9.116;2023-04-15T07:49:55;96980.97;;;16.67;47.11
13553;BME280;6847;48.830;9.116;2023-04-15T07:52:23;96981.69;;;16.88;46.90
13553;BME280;6847;48.830;9.116;2023-04-15T07:54:50;96978.41;;;17.19;46.27
13553;BME280;6847;48.830;9.116;2023-04-15T07:57:18;96978.59;;;17.74;46.00
13553;BME280;6847;48.830;9.116;2023-04-15T07:59:44;96987.09;;;17.97;45.36
13553;BME280;6847;48.830;9.116;2023-04-15T08:02:13;96979.53;;;18.62;44.99
13553;BME280;6847;48.830;9.116;2023-04-15T08:04:40;96984.31;;;19.59;43.69
13553;BME280;6847;48.830;9.116;2023-04-15T08:07:07;96980.50;;;20.38;42.96
13553;BME280;6847;48.830;9.116;2023-04-15T08:09:34;96973.84;;;21.49;41.65
13553;BME280;6847;48.830;9.116;2023-04-15T08:12:02;96979.34;;;22.69;40.19
13553;BME280;6847;48.830;9.116;2023-04-15T08:14:31;96988.50;;;24.30;38.56
13553;BME280;6847;48.830;9.116;2023-04-15T08:16:57;96983.16;;;26.00;37.20
13553;BME280;6847;48.830;9.116;2023-04-15T08:19:26;96994.25;;;27.53;35.83
13553;BME280;6847;48.830;9.116;2023-04-15T08:21:53;96994.88;;;28.84;35.11
13553;BME280;6847;48.830;9.116;2023-04-15T08:24:23;96999.31;;;29.32;35.31
13553;BME280;6847;48.830;9.116;2023-04-15T08:26:54;96991.72;;;29.59;35.38
13553;BME280;6847;48.830;9.116;2023-04-15T08:29:24;96993.97;;;29.68;35.52
13553;BME280;6847;48.830;9.116;2023-04-15T08:31:51;96999.25;;;29.39;36.40
13553;BME280;6847;48.830;9.116;2023-04-15T08:34:22;96992.69;;;28.34;37.79
13553;BME280;6847;48.830;9.116;2023-04-15T08:36:50;96984.06;;;27.36;38.69
13553;BME280;6847;48.830;9.116;2023-04-15T08:39:17;96999.16;;;27.39;38.94
13553;BME280;6847;48.830;9.116;2023-04-15T08:41:51;96990.25;;;27.61;38.44
13553;BME280;6847;48.830;9.116;2023-04-15T08:44:22;96999.56;;;27.37;38.65
13553;BME280;6847;48.830;9.116;2023-04-15T08:46:50;97003.44;;;27.50;38.18
13553;BME280;6847;48.830;9.116;2023-04-15T08:49:18;97004.94;;;28.03;37.31
13553;BME280;6847;48.830;9.116;2023-04-15T08:51:47;96998.03;;;28.86;36.20
13553;BME280;6847;48.830;9.116;2023-04-15T08:54:16;96996.91;;;29.34;35.32
13553;BME280;6847;48.830;9.116;2023-04-15T08:56:45;97004.94;;;29.78;35.40
13553;BME280;6847;48.830;9.116;2023-04-15T08:59:14;96998.69;;;30.17;34.67
13553;BME280;6847;48.830;9.116;2023-04-15T09:01:48;97000.91;;;30.66;34.30
13553;BME280;6847;48.830;9.116;2023-04-15T09:04:16;96999.81;;;31.51;33.86
13553;BME280;6847;48.830;9.116;2023-04-15T09:06:43;97004.44;;;32.35;32.91
13553;BME280;6847;48.830;9.116;2023-04-15T09:09:11;97012.28;;;33.24;32.16
13553;BME280;6847;48.830;9.116;2023-04-15T09:11:44;97016.28;;;33.61;32.12
13553;BME280;6847;48.830;9.116;2023-04-15T09:14:10;97019.53;;;33.72;31.41
13553;BME280;6847;48.830;9.116;2023-04-15T09:16:57;97017.66;;;33.69;31.31
13553;BME280;6847;48.830;9.116;2023-04-15T09:19:26;97019.66;;;33.81;31.08
13553;BME280;6847;48.830;9.116;2023-04-15T09:21:58;97015.38;;;34.24;31.13
13553;BME280;6847;48.830;9.116;2023-04-15T09:24:35;97016.41;;;33.83;30.83
13553;BME280;6847;48.830;9.116;2023-04-15T09:27:07;97021.84;;;33.39;31.58
13553;BME280;6847;48.830;9.116;2023-04-15T09:29:44;97029.25;;;32.79;31.59
13553;BME280;6847;48.830;9.116;2023-04-15T09:32:18;97024.59;;;32.59;31.88
13553;BME280;6847;48.830;9.116;2023-04-15T09:34:49;97027.69;;;32.20;32.27
13553;BME280;6847;48.830;9.116;2023-04-15T09:37:17;97030.84;;;31.41;32.62
13553;BME280;6847;48.830;9.116;2023-04-15T09:40:00;97018.72;;;30.56;33.29
13553;BME280;6847;48.830;9.116;2023-04-15T09:42:30;97008.94;;;29.77;33.99
13553;BME280;6847;48.830;9.116;2023-04-15T09:45:07;97020.53;;;29.53;33.67
13553;BME280;6847;48.830;9.116;2023-04-15T09:47:38;97006.81;;;29.12;33.94
13553;BME280;6847;48.830;9.116;2023-04-15T09:50:06;97029.56;;;28.46;34.40
13553;BME280;6847;48.830;9.116;2023-04-15T09:52:40;97019.63;;;27.62;35.18
13553;BME280;6847;48.830;9.116;2023-04-15T09:55:09;97014.16;;;26.86;35.36
13553;BME280;6847;48.830;9.116;2023-04-15T09:57:38;97023.50;;;26.26;36.04
13553;BME280;6847;48.830;9.116;2023-04-15T10:00:08;97026.81;;;25.64;36.00
13553;BME280;6847;48.830;9.116;2023-04-15T10:02:37;96995.88;;;25.09;36.20
13553;BME280;6847;48.830;9.116;2023-04-15T10:05:09;97026.72;;;25.00;35.93
13553;BME280;6847;48.830;9.116;2023-04-15T10:07:38;97026.59;;;24.68;36.07
13553;BME280;6847;48.830;9.116;2023-04-15T10:10:09;97003.19;;;24.41;35.69
13553;BME280;6847;48.830;9.116;2023-04-15T10:12:42;97007.84;;;24.23;35.70
13553;BME280;6847;48.830;9.116;2023-04-15T10:15:14;97028.72;;;24.17;35.55
13553;BME280;6847;48.830;9.116;2023-04-15T10:17:44;97027.81;;;23.95;35.48
13553;BME280;6847;48.830;9.116;2023-04-15T10:20:14;97026.06;;;23.69;35.44
13553;BME280;6847;48.830;9.116;2023-04-15T10:22:46;96991.41;;;23.35;35.83
13553;BME280;6847;48.830;9.116;2023-04-15T10:25:14;97024.41;;;23.61;35.20
13553;BME280;6847;48.830;9.116;2023-04-15T10:27:46;97024.28;;;23.98;34.66
13553;BME280;6847;48.830;9.116;2023-04-15T10:30:14;97025.16;;;25.03;33.65
13553;BME280;6847;48.830;9.116;2023-04-15T10:32:44;97029.94;;;25.91;32.64
13553;BME280;6847;48.830;9.116;2023-04-15T10:35:12;97035.41;;;26.41;32.00
13553;BME280;6847;48.830;9.116;2023-04-15T10:37:43;97042.84;;;27.35;31.28
13553;BME280;6847;48.830;9.116;2023-04-15T10:40:28;97023.44;;;28.24;30.82
13553;BME280;6847;48.830;9.116;2023-04-15T10:43:01;97035.50;;;28.48;30.85
13553;BME280;6847;48.830;9.116;2023-04-15T10:45:32;97040.63;;;28.12;31.11
13553;BME280;6847;48.830;9.116;2023-04-15T10:48:01;97046.88;;;27.30;31.91
13553;BME280;6847;48.830;9.116;2023-04-15T10:50:30;97046.13;;;26.21;33.21
13553;BME280;6847;48.830;9.116;2023-04-15T10:53:01;97047.31;;;25.10;34.26
13553;BME280;6847;48.830;9.116;2023-04-15T10:55:32;97049.28;;;24.16;34.83
13553;BME280;6847;48.830;9.116;2023-04-15T10:58:02;97047.28;;;23.58;35.21
13553;BME280;6847;48.830;9.116;2023-04-15T11:00:31;96991.59;;;23.08;34.76
13553;BME280;6847;48.830;9.116;2023-04-15T11:03:05;97020.34;;;23.48;34.55
13553;BME280;6847;48.830;9.116;2023-04-15T11:08:19;97046.91;;;24.18;33.42
13553;BME280;6847;48.830;9.116;2023-04-15T11:10:50;97050.88;;;25.07;32.50
13553;BME280;6847;48.830;9.116;2023-04-15T11:13:46;97044.75;;;26.75;31.25
13553;BME280;6847;48.830;9.116;2023-04-15T11:16:15;97044.84;;;27.86;29.87
13553;BME280;6847;48.830;9.116;2023-04-15T11:18:53;97048.56;;;28.13;30.08
13553;BME280;6847;48.830;9.116;2023-04-15T11:21:23;97048.38;;;28.34;30.12
13553;BME280;6847;48.830;9.116;2023-04-15T11:23:54;96971.84;;;28.12;29.89
13553;BME280;6847;48.830;9.116;2023-04-15T11:26:25;97051.09;;;28.72;29.96
13553;BME280;6847;48.830;9.116;2023-04-15T11:28:56;97057.00;;;28.44;30.53
13553;BME280;6847;48.830;9.116;2023-04-15T11:31:28;97052.63;;;27.53;31.47
13553;BME280;6847;48.830;9.116;2023-04-15T11:33:59;97060.38;;;26.41;32.57
13553;BME280;6847;48.830;9.116;2023-04-15T11:36:29;97058.44;;;25.24;33.36
13553;BME280;6847;48.830;9.116;2023-04-15T11:38:57;96981.16;;;23.86;34.01
13553;BME280;6847;48.830;9.116;2023-04-15T11:41:25;97048.81;;;23.52;34.39
13553;BME280;6847;48.830;9.116;2023-04-15T11:43:57;97048.72;;;23.04;34.75
13553;BME280;6847;48.830;9.116;2023-04-15T11:46:28;97056.28;;;23.07;34.43
13553;BME280;6847;48.830;9.116;2023-04-15T11:48:56;97057.97;;;23.22;33.84
13553;BME280;6847;48.830;9.116;2023-04-15T11:51:31;97055.69;;;23.32;33.61
13553;BME280;6847;48.830;9.116;2023-04-15T11:53:58;97064.47;;;23.41;33.50
13553;BME280;6847;48.830;9.116;2023-04-15T11:56:26;97058.13;;;23.37;33.22
13553;BME280;6847;48.830;9.116;2023-04-15T11:58:57;97063.50;;;23.22;33.42
13553;BME280;6847;48.830;9.116;2023-04-15T12:01:31;97066.13;;;23.08;33.46
13553;BME280;6847;48.830;9.116;2023-04-15T12:04:09;97037.88;;;22.81;33.37
13553;BME280;6847;48.830;9.116;2023-04-15T12:06:49;97071.44;;;22.87;33.20
13553;BME280;6847;48.830;9.116;2023-04-15T12:09:16;97035.56;;;22.87;32.75
13553;BME280;6847;48.830;9.116;2023-04-15T12:11:45;97076.84;;;23.54;32.67
13553;BME280;6847;48.830;9.116;2023-04-15T12:14:20;97082.56;;;23.75;32.38
13553;BME280;6847;48.830;9.116;2023-04-15T12:16:48;97064.72;;;23.66;32.45
13553;BME280;6847;48.830;9.116;2023-04-15T12:19:18;97086.97;;;23.83;32.39
13553;BME280;6847;48.830;9.116;2023-04-15T12:21:48;97110.75;;;23.95;32.51
13553;BME280;6847;48.830;9.116;2023-04-15T12:24:19;97121.34;;;23.45;32.81
13553;BME280;6847;48.830;9.116;2023-04-15T12:26:49;97135.09;;;22.71;33.57
13553;BME280;6847;48.830;9.116;2023-04-15T12:29:17;97141.06;;;21.71;34.46
13553;BME280;6847;48.830;9.116;2023-04-15T12:31:46;97135.16;;;20.69;35.21
13553;BME280;6847;48.830;9.116;2023-04-15T12:34:13;97141.09;;;19.86;35.65
13553;BME280;6847;48.830;9.116;2023-04-15T12:36:44;97134.16;;;19.29;36.17
13553;BME280;6847;48.830;9.116;2023-04-15T12:39:12;97127.06;;;18.84;36.20
13553;BME280;6847;48.830;9.116;2023-04-15T12:41:39;97161.84;;;18.68;35.92
13553;BME280;6847;48.830;9.116;2023-04-15T12:44:06;97156.16;;;18.49;35.87
13553;BME280;6847;48.830;9.116;2023-04-15T12:46:34;97159.84;;;18.29;35.86
13553;BME280;6847;48.830;9.116;2023-04-15T12:49:01;97168.06;;;18.17;35.80
13553;BME280;6847;48.830;9.116;2023-04-15T12:51:31;97163.75;;;18.16;35.98
13553;BME280;6847;48.830;9.116;2023-04-15T12:53:58;97144.34;;;18.21;35.95
13553;BME280;6847;48.830;9.116;2023-04-15T12:56:25;97169.34;;;18.71;35.64
13553;BME280;6847;48.830;9.116;2023-04-15T12:58:52;97161.50;;;18.98;35.40
13553;BME280;6847;48.830;9.116;2023-04-15T13:01:19;97160.94;;;19.20;34.91
13553;BME280;6847;48.830;9.116;2023-04-15T13:03:49;97144.69;;;19.27;34.89
13553;BME280;6847;48.830;9.116;2023-04-15T13:06:16;97172.63;;;19.61;34.80
13553;BME280;6847;48.830;9.116;2023-04-15T13:08:43;97174.25;;;19.77;34.64
13553;BME280;6847;48.830;9.116;2023-04-15T13:11:10;97177.69;;;19.90;34.92
13553;BME280;6847;48.830;9.116;2023-04-15T13:13:37;97180.34;;;20.02;34.72
13553;BME280;6847;48.830;9.116;2023-04-15T13:16:04;97179.91;;;20.00;35.04
13553;BME280;6847;48.830;9.116;2023-04-15T13:18:31;97182.94;;;19.95;34.87
13553;BME280;6847;48.830;9.116;2023-04-15T13:21:03;97182.38;;;19.74;35.25
13553;BME280;6847;48.830;9.116;2023-04-15T13:23:31;97170.16;;;19.55;35.20
13553;BME280;6847;48.830;9.116;2023-04-15T13:25:58;97203.97;;;19.59;35.46
13553;BME280;6847;48.830;9.116;2023-04-15T13:28:25;97203.47;;;19.42;35.39